DLH5AF EDDH-EDDF
Flight info
| Callsign | DLH5AF |
|---|---|
| Flight time | 0h 47m |
| Altitude | 30000 |
| Route | AMLUH2C/05 AMLUH M852 DENIX DCT RIMET/N0406F310 T157 KOKEB/N0352F230 T157 KERAX KERAX5A |
| Aircraft | A20N/M-SDE2E3FGHIRWXY/LB1 |
Departure
| Time | 2026-05-06 13:25 |
|---|---|
| Airport | Hamburg Helmut Schmidt Airport (EDDH) |
Arrival
| Time | 2026-05-06 14:12 |
|---|---|
| Airport | Frankfurt Main Airport (EDDF) |
| Time | Latitude | Longitude | Altitude | Speed | Heading |
|---|---|---|---|---|---|
| 2026-05-06 12:53 | 53.63415 | 10.00342 | 50 ft | 0 kts | 85° |
| 2026-05-06 13:12 | 53.63415 | 10.00322 | 51 ft | 0 kts | 85° |
| 2026-05-06 13:12 | 53.63413 | 10.00296 | 45 ft | 5 kts | 85° |
| 2026-05-06 13:13 | 53.63412 | 10.00254 | 45 ft | 3 kts | 108° |
| 2026-05-06 13:13 | 53.63423 | 10.00228 | 49 ft | 3 kts | 160° |
| 2026-05-06 13:13 | 53.63443 | 10.00221 | 49 ft | 3 kts | 176° |
| 2026-05-06 13:13 | 53.63446 | 10.00220 | 50 ft | 0 kts | 176° |
| 2026-05-06 13:17 | 53.63437 | 10.00221 | 48 ft | 3 kts | 176° |
| 2026-05-06 13:17 | 53.63398 | 10.00226 | 48 ft | 8 kts | 176° |
| 2026-05-06 13:17 | 53.63333 | 10.00234 | 50 ft | 10 kts | 175° |
| 2026-05-06 13:17 | 53.63258 | 10.00208 | 49 ft | 12 kts | 227° |
| 2026-05-06 13:18 | 53.63197 | 10.00073 | 50 ft | 17 kts | 232° |
| 2026-05-06 13:18 | 53.63122 | 9.99918 | 50 ft | 17 kts | 220° |
| 2026-05-06 13:18 | 53.63017 | 9.99940 | 50 ft | 13 kts | 152° |
| 2026-05-06 13:18 | 53.62932 | 10.00014 | 50 ft | 14 kts | 153° |
| 2026-05-06 13:19 | 53.62854 | 10.00012 | 50 ft | 0 kts | 210° |
| 2026-05-06 13:19 | 53.62844 | 10.00003 | 48 ft | 4 kts | 210° |
| 2026-05-06 13:19 | 53.62809 | 9.99968 | 47 ft | 9 kts | 210° |
| 2026-05-06 13:19 | 53.62712 | 9.99878 | 47 ft | 22 kts | 207° |
| 2026-05-06 13:20 | 53.62629 | 9.99675 | 50 ft | 20 kts | 259° |
| 2026-05-06 13:20 | 53.62605 | 9.99471 | 49 ft | 16 kts | 259° |
| 2026-05-06 13:20 | 53.62586 | 9.99299 | 50 ft | 8 kts | 259° |
| 2026-05-06 13:20 | 53.62573 | 9.99177 | 50 ft | 13 kts | 259° |
| 2026-05-06 13:21 | 53.62556 | 9.99038 | 50 ft | 11 kts | 259° |
| 2026-05-06 13:21 | 53.62540 | 9.98894 | 50 ft | 10 kts | 259° |
| 2026-05-06 13:21 | 53.62527 | 9.98782 | 50 ft | 11 kts | 259° |
| 2026-05-06 13:21 | 53.62510 | 9.98627 | 50 ft | 15 kts | 258° |
| 2026-05-06 13:22 | 53.62493 | 9.98481 | 50 ft | 14 kts | 259° |
| 2026-05-06 13:22 | 53.62472 | 9.98301 | 50 ft | 18 kts | 259° |
| 2026-05-06 13:22 | 53.62430 | 9.98107 | 50 ft | 14 kts | 240° |
| 2026-05-06 13:22 | 53.62376 | 9.97983 | 50 ft | 10 kts | 231° |
| 2026-05-06 13:23 | 53.62327 | 9.97882 | 50 ft | 13 kts | 230° |
| 2026-05-06 13:23 | 53.62262 | 9.97752 | 50 ft | 15 kts | 230° |
| 2026-05-06 13:23 | 53.62195 | 9.97613 | 50 ft | 16 kts | 235° |
| 2026-05-06 13:23 | 53.62193 | 9.97448 | 47 ft | 9 kts | 303° |
| 2026-05-06 13:24 | 53.62248 | 9.97366 | 49 ft | 12 kts | 338° |
| 2026-05-06 13:24 | 53.62328 | 9.97408 | 47 ft | 13 kts | 49° |
| 2026-05-06 13:24 | 53.62369 | 9.97476 | 47 ft | 0 kts | 49° |
| 2026-05-06 13:24 | 53.62370 | 9.97477 | 47 ft | 1 kts | 49° |
| 2026-05-06 13:25 | 53.62417 | 9.97568 | 47 ft | 33 kts | 50° |
| 2026-05-06 13:25 | 53.62710 | 9.98163 | 50 ft | 94 kts | 50° |
| 2026-05-06 13:25 | 53.63227 | 9.99196 | 135 ft | 128 kts | 51° |
| 2026-05-06 13:25 | 53.63781 | 10.00300 | 690 ft | 124 kts | 51° |
| 2026-05-06 13:26 | 53.64353 | 10.01447 | 1216 ft | 127 kts | 50° |
| 2026-05-06 13:26 | 53.64922 | 10.02585 | 1711 ft | 130 kts | 50° |
| 2026-05-06 13:26 | 53.65533 | 10.03811 | 2080 ft | 142 kts | 50° |
| 2026-05-06 13:26 | 53.66202 | 10.05155 | 2511 ft | 155 kts | 51° |
| 2026-05-06 13:27 | 53.66898 | 10.06609 | 2969 ft | 170 kts | 52° |
| 2026-05-06 13:27 | 53.67678 | 10.08283 | 3466 ft | 192 kts | 53° |
| 2026-05-06 13:27 | 53.68538 | 10.10134 | 4092 ft | 208 kts | 53° |
| 2026-05-06 13:27 | 53.69447 | 10.12047 | 5182 ft | 208 kts | 53° |
| 2026-05-06 13:28 | 53.70338 | 10.14037 | 6173 ft | 215 kts | 63° |
| 2026-05-06 13:28 | 53.70677 | 10.16484 | 7080 ft | 221 kts | 93° |
| 2026-05-06 13:28 | 53.70174 | 10.18979 | 8014 ft | 231 kts | 123° |
| 2026-05-06 13:28 | 53.68959 | 10.20732 | 8937 ft | 237 kts | 155° |
| 2026-05-06 13:29 | 53.67325 | 10.21563 | 9667 ft | 255 kts | 166° |
| 2026-05-06 13:29 | 53.65485 | 10.22269 | 10007 ft | 285 kts | 167° |
| 2026-05-06 13:29 | 53.63478 | 10.23024 | 10397 ft | 309 kts | 166° |
| 2026-05-06 13:29 | 53.61308 | 10.23938 | 10873 ft | 329 kts | 165° |
| 2026-05-06 13:30 | 53.59096 | 10.24934 | 11714 ft | 334 kts | 164° |
| 2026-05-06 13:30 | 53.56838 | 10.25965 | 12731 ft | 334 kts | 164° |
| 2026-05-06 13:30 | 53.54592 | 10.26987 | 13781 ft | 336 kts | 164° |
| 2026-05-06 13:30 | 53.52322 | 10.28017 | 14457 ft | 343 kts | 165° |
| 2026-05-06 13:31 | 53.49998 | 10.29066 | 15239 ft | 347 kts | 165° |
| 2026-05-06 13:31 | 53.47624 | 10.30120 | 15969 ft | 352 kts | 167° |
| 2026-05-06 13:31 | 53.45217 | 10.30496 | 16827 ft | 354 kts | 180° |
| 2026-05-06 13:31 | 53.42715 | 10.30466 | 17649 ft | 359 kts | 181° |
| 2026-05-06 13:32 | 53.40199 | 10.30403 | 18476 ft | 362 kts | 181° |
| 2026-05-06 13:32 | 53.37666 | 10.30314 | 19178 ft | 367 kts | 182° |
| 2026-05-06 13:32 | 53.35107 | 10.30211 | 19872 ft | 372 kts | 182° |
| 2026-05-06 13:32 | 53.32492 | 10.30099 | 20594 ft | 377 kts | 182° |
| 2026-05-06 13:33 | 53.29872 | 10.29987 | 21066 ft | 386 kts | 182° |
| 2026-05-06 13:33 | 53.27170 | 10.29871 | 21878 ft | 385 kts | 182° |
| 2026-05-06 13:33 | 53.24472 | 10.29756 | 22508 ft | 389 kts | 182° |
| 2026-05-06 13:33 | 53.21746 | 10.29639 | 23074 ft | 395 kts | 182° |
| 2026-05-06 13:34 | 53.18995 | 10.29522 | 23726 ft | 396 kts | 182° |
| 2026-05-06 13:34 | 53.16243 | 10.29404 | 24260 ft | 399 kts | 181° |
| 2026-05-06 13:34 | 53.13448 | 10.29285 | 24853 ft | 401 kts | 181° |
| 2026-05-06 13:34 | 53.10670 | 10.29167 | 25238 ft | 405 kts | 181° |
| 2026-05-06 13:35 | 53.07840 | 10.29046 | 25609 ft | 409 kts | 181° |
| 2026-05-06 13:35 | 53.04978 | 10.28924 | 25989 ft | 411 kts | 181° |
| 2026-05-06 13:35 | 53.02116 | 10.28802 | 26373 ft | 412 kts | 181° |
| 2026-05-06 13:35 | 52.99269 | 10.28681 | 26756 ft | 415 kts | 180° |
| 2026-05-06 13:36 | 52.96373 | 10.28557 | 27148 ft | 417 kts | 180° |
| 2026-05-06 13:36 | 52.93442 | 10.28432 | 27554 ft | 420 kts | 180° |
| 2026-05-06 13:36 | 52.90495 | 10.28306 | 27961 ft | 423 kts | 180° |
| 2026-05-06 13:36 | 52.87550 | 10.28182 | 28310 ft | 425 kts | 180° |
| 2026-05-06 13:37 | 52.84621 | 10.28059 | 28587 ft | 427 kts | 180° |
| 2026-05-06 13:37 | 52.81636 | 10.27934 | 28865 ft | 428 kts | 180° |
| 2026-05-06 13:37 | 52.78634 | 10.27808 | 29161 ft | 430 kts | 180° |
| 2026-05-06 13:37 | 52.75665 | 10.27683 | 29444 ft | 432 kts | 180° |
| 2026-05-06 13:38 | 52.72643 | 10.27557 | 29729 ft | 434 kts | 180° |
| 2026-05-06 13:38 | 52.66641 | 10.27308 | 29824 ft | 435 kts | 179° |
| 2026-05-06 13:39 | 52.60605 | 10.27058 | 29826 ft | 435 kts | 180° |
| 2026-05-06 13:39 | 52.54523 | 10.26810 | 29827 ft | 434 kts | 181° |
| 2026-05-06 13:40 | 52.48509 | 10.26567 | 29825 ft | 434 kts | 181° |
| 2026-05-06 13:40 | 52.42449 | 10.26316 | 29821 ft | 435 kts | 181° |
| 2026-05-06 13:41 | 52.36421 | 10.26068 | 29814 ft | 434 kts | 181° |
| 2026-05-06 13:41 | 52.30373 | 10.25824 | 29802 ft | 434 kts | 182° |
| 2026-05-06 13:42 | 52.24329 | 10.25585 | 29802 ft | 433 kts | 182° |
| 2026-05-06 13:42 | 52.18339 | 10.25341 | 29796 ft | 433 kts | 182° |
| 2026-05-06 13:43 | 52.12293 | 10.25095 | 29793 ft | 433 kts | 182° |
| 2026-05-06 13:43 | 52.06265 | 10.24851 | 29785 ft | 442 kts | 182° |
| 2026-05-06 13:44 | 52.00081 | 10.24602 | 29779 ft | 443 kts | 182° |
| 2026-05-06 13:44 | 51.93939 | 10.24354 | 29779 ft | 443 kts | 182° |
| 2026-05-06 13:45 | 51.87780 | 10.24107 | 29777 ft | 443 kts | 182° |
| 2026-05-06 13:45 | 51.78613 | 10.23743 | 29770 ft | 435 kts | 183° |
| 2026-05-06 13:46 | 51.72590 | 10.23509 | 29764 ft | 420 kts | 184° |
| 2026-05-06 13:46 | 51.66725 | 10.23272 | 29765 ft | 425 kts | 184° |
| 2026-05-06 13:47 | 51.60840 | 10.23036 | 29763 ft | 424 kts | 184° |
| 2026-05-06 13:47 | 51.55896 | 10.22840 | 29576 ft | 425 kts | 184° |
| 2026-05-06 13:48 | 51.52940 | 10.22724 | 28892 ft | 422 kts | 184° |
| 2026-05-06 13:48 | 51.49090 | 10.22574 | 28051 ft | 418 kts | 184° |
| 2026-05-06 13:48 | 51.47084 | 10.22495 | 27669 ft | 421 kts | 184° |
| 2026-05-06 13:48 | 51.44216 | 10.22381 | 27068 ft | 419 kts | 184° |
| 2026-05-06 13:49 | 51.41319 | 10.22268 | 26478 ft | 414 kts | 184° |
| 2026-05-06 13:49 | 51.38454 | 10.22157 | 25867 ft | 408 kts | 184° |
| 2026-05-06 13:49 | 51.35626 | 10.22048 | 25248 ft | 402 kts | 185° |
| 2026-05-06 13:49 | 51.32846 | 10.21941 | 24869 ft | 397 kts | 185° |
| 2026-05-06 13:50 | 51.30057 | 10.21860 | 24766 ft | 405 kts | 184° |
| 2026-05-06 13:50 | 51.27262 | 10.21806 | 24752 ft | 405 kts | 184° |
| 2026-05-06 13:50 | 51.24447 | 10.21758 | 24748 ft | 405 kts | 184° |
| 2026-05-06 13:50 | 51.21620 | 10.21708 | 24748 ft | 405 kts | 184° |
| 2026-05-06 13:51 | 51.18841 | 10.21650 | 24629 ft | 402 kts | 185° |
| 2026-05-06 13:51 | 51.16076 | 10.21090 | 24379 ft | 397 kts | 197° |
| 2026-05-06 13:51 | 51.13501 | 10.19545 | 24139 ft | 393 kts | 210° |
| 2026-05-06 13:51 | 51.11148 | 10.17404 | 23894 ft | 395 kts | 212° |
| 2026-05-06 13:52 | 51.08771 | 10.15188 | 23658 ft | 394 kts | 212° |
| 2026-05-06 13:52 | 51.06408 | 10.12965 | 23422 ft | 392 kts | 212° |
| 2026-05-06 13:52 | 51.04060 | 10.10750 | 23164 ft | 391 kts | 212° |
| 2026-05-06 13:52 | 51.01746 | 10.08568 | 22888 ft | 390 kts | 212° |
| 2026-05-06 13:53 | 50.99411 | 10.06368 | 22612 ft | 388 kts | 212° |
| 2026-05-06 13:53 | 50.97078 | 10.04175 | 22338 ft | 387 kts | 212° |
| 2026-05-06 13:53 | 50.94758 | 10.01996 | 22064 ft | 386 kts | 212° |
| 2026-05-06 13:53 | 50.92481 | 9.99861 | 21799 ft | 384 kts | 212° |
| 2026-05-06 13:54 | 50.90180 | 9.97705 | 21519 ft | 385 kts | 212° |
| 2026-05-06 13:54 | 50.87864 | 9.95536 | 21262 ft | 387 kts | 212° |
| 2026-05-06 13:54 | 50.85536 | 9.93362 | 20997 ft | 384 kts | 212° |
| 2026-05-06 13:54 | 50.83263 | 9.91243 | 20746 ft | 382 kts | 212° |
| 2026-05-06 13:55 | 50.80958 | 9.89094 | 20486 ft | 381 kts | 212° |
| 2026-05-06 13:55 | 50.78699 | 9.86992 | 20249 ft | 378 kts | 211° |
| 2026-05-06 13:55 | 50.76431 | 9.84883 | 19994 ft | 377 kts | 211° |
| 2026-05-06 13:55 | 50.74161 | 9.82774 | 19744 ft | 376 kts | 211° |
| 2026-05-06 13:56 | 50.71926 | 9.80701 | 19495 ft | 375 kts | 211° |
| 2026-05-06 13:56 | 50.69670 | 9.78610 | 19253 ft | 374 kts | 211° |
| 2026-05-06 13:56 | 50.67417 | 9.76525 | 19015 ft | 373 kts | 211° |
| 2026-05-06 13:56 | 50.65212 | 9.74486 | 18767 ft | 371 kts | 211° |
| 2026-05-06 13:57 | 50.62969 | 9.72414 | 18518 ft | 371 kts | 211° |
| 2026-05-06 13:57 | 50.60770 | 9.70385 | 18290 ft | 370 kts | 211° |
| 2026-05-06 13:57 | 50.58542 | 9.68332 | 18056 ft | 369 kts | 211° |
| 2026-05-06 13:57 | 50.56320 | 9.66288 | 17791 ft | 368 kts | 211° |
| 2026-05-06 13:58 | 50.54130 | 9.64275 | 17521 ft | 366 kts | 211° |
| 2026-05-06 13:58 | 50.51922 | 9.62249 | 17257 ft | 366 kts | 211° |
| 2026-05-06 13:58 | 50.49756 | 9.60165 | 16984 ft | 364 kts | 217° |
| 2026-05-06 13:58 | 50.47964 | 9.57418 | 16716 ft | 364 kts | 232° |
| 2026-05-06 13:59 | 50.46710 | 9.53933 | 16458 ft | 366 kts | 248° |
| 2026-05-06 13:59 | 50.45957 | 9.50112 | 16200 ft | 365 kts | 252° |
| 2026-05-06 13:59 | 50.45254 | 9.46329 | 15956 ft | 364 kts | 252° |
| 2026-05-06 13:59 | 50.44540 | 9.42512 | 15697 ft | 362 kts | 252° |
| 2026-05-06 14:00 | 50.43829 | 9.38731 | 15406 ft | 359 kts | 252° |
| 2026-05-06 14:00 | 50.43133 | 9.35051 | 15025 ft | 348 kts | 252° |
| 2026-05-06 14:00 | 50.42459 | 9.31502 | 14656 ft | 331 kts | 252° |
| 2026-05-06 14:00 | 50.41811 | 9.28100 | 14288 ft | 316 kts | 252° |
| 2026-05-06 14:01 | 50.41196 | 9.24906 | 13945 ft | 303 kts | 251° |
| 2026-05-06 14:01 | 50.40485 | 9.21844 | 13619 ft | 295 kts | 249° |
| 2026-05-06 14:01 | 50.39785 | 9.18847 | 13271 ft | 290 kts | 249° |
| 2026-05-06 14:01 | 50.39093 | 9.15870 | 12824 ft | 289 kts | 249° |
| 2026-05-06 14:02 | 50.38418 | 9.12955 | 12427 ft | 287 kts | 249° |
| 2026-05-06 14:02 | 50.37684 | 9.10049 | 12114 ft | 284 kts | 240° |
| 2026-05-06 14:02 | 50.36398 | 9.07733 | 11675 ft | 283 kts | 216° |
| 2026-05-06 14:02 | 50.34586 | 9.06556 | 11253 ft | 284 kts | 190° |
| 2026-05-06 14:03 | 50.32635 | 9.06658 | 10854 ft | 285 kts | 174° |
| 2026-05-06 14:03 | 50.30678 | 9.07127 | 10460 ft | 284 kts | 173° |
| 2026-05-06 14:03 | 50.28761 | 9.07598 | 9941 ft | 280 kts | 173° |
| 2026-05-06 14:03 | 50.26858 | 9.08058 | 9342 ft | 277 kts | 173° |
| 2026-05-06 14:04 | 50.24945 | 9.08479 | 8729 ft | 273 kts | 179° |
| 2026-05-06 14:04 | 50.23131 | 9.08007 | 8167 ft | 264 kts | 206° |
| 2026-05-06 14:04 | 50.21697 | 9.06377 | 7788 ft | 253 kts | 223° |
| 2026-05-06 14:04 | 50.20442 | 9.04508 | 7481 ft | 242 kts | 224° |
| 2026-05-06 14:05 | 50.19263 | 9.02740 | 7230 ft | 231 kts | 224° |
| 2026-05-06 14:05 | 50.18160 | 9.01081 | 7075 ft | 214 kts | 223° |
| 2026-05-06 14:05 | 50.17116 | 8.99512 | 6852 ft | 206 kts | 223° |
| 2026-05-06 14:05 | 50.16056 | 8.97915 | 6410 ft | 212 kts | 224° |
| 2026-05-06 14:06 | 50.15073 | 8.96219 | 5914 ft | 214 kts | 234° |
| 2026-05-06 14:06 | 50.14352 | 8.94178 | 5440 ft | 213 kts | 245° |
| 2026-05-06 14:06 | 50.13815 | 8.92075 | 5106 ft | 207 kts | 248° |
| 2026-05-06 14:06 | 50.13336 | 8.90032 | 4999 ft | 196 kts | 248° |
| 2026-05-06 14:07 | 50.12882 | 8.88130 | 5007 ft | 181 kts | 248° |
| 2026-05-06 14:07 | 50.12442 | 8.86286 | 4961 ft | 182 kts | 247° |
| 2026-05-06 14:07 | 50.12005 | 8.84471 | 4806 ft | 179 kts | 248° |
| 2026-05-06 14:07 | 50.11565 | 8.82623 | 4565 ft | 182 kts | 248° |
| 2026-05-06 14:08 | 50.11129 | 8.80755 | 4315 ft | 182 kts | 248° |
| 2026-05-06 14:08 | 50.10689 | 8.78933 | 4035 ft | 178 kts | 247° |
| 2026-05-06 14:08 | 50.10240 | 8.77142 | 3743 ft | 175 kts | 248° |
| 2026-05-06 14:08 | 50.09813 | 8.75369 | 3513 ft | 179 kts | 249° |
| 2026-05-06 14:09 | 50.09392 | 8.73569 | 3241 ft | 177 kts | 249° |
| 2026-05-06 14:09 | 50.08974 | 8.71792 | 2971 ft | 174 kts | 249° |
| 2026-05-06 14:09 | 50.08561 | 8.70027 | 2749 ft | 176 kts | 249° |
| 2026-05-06 14:09 | 50.08129 | 8.68214 | 2521 ft | 177 kts | 249° |
| 2026-05-06 14:10 | 50.07704 | 8.66432 | 2292 ft | 178 kts | 249° |
| 2026-05-06 14:10 | 50.07265 | 8.64620 | 2033 ft | 176 kts | 249° |
| 2026-05-06 14:10 | 50.06850 | 8.62891 | 1753 ft | 162 kts | 249° |
| 2026-05-06 14:10 | 50.06490 | 8.61347 | 1544 ft | 144 kts | 249° |
| 2026-05-06 14:11 | 50.06154 | 8.59944 | 1328 ft | 134 kts | 249° |
| 2026-05-06 14:11 | 50.05834 | 8.58599 | 1120 ft | 137 kts | 249° |
| 2026-05-06 14:11 | 50.05496 | 8.57196 | 944 ft | 138 kts | 248° |
| 2026-05-06 14:11 | 50.05158 | 8.55768 | 744 ft | 141 kts | 247° |
| 2026-05-06 14:12 | 50.04825 | 8.54384 | 563 ft | 136 kts | 248° |
| 2026-05-06 14:12 | 50.04500 | 8.53027 | 366 ft | 130 kts | 248° |
| 2026-05-06 14:12 | 50.04224 | 8.51883 | 335 ft | 78 kts | 251° |
| 2026-05-06 14:12 | 50.04101 | 8.51360 | 331 ft | 44 kts | 249° |
| 2026-05-06 14:13 | 50.03996 | 8.51049 | 326 ft | 30 kts | 229° |
| 2026-05-06 14:13 | 50.03910 | 8.50923 | 327 ft | 11 kts | 220° |
| 2026-05-06 14:13 | 50.03859 | 8.50856 | 326 ft | 9 kts | 219° |
| 2026-05-06 14:13 | 50.03795 | 8.50844 | 326 ft | 11 kts | 146° |
| 2026-05-06 14:14 | 50.03789 | 8.50956 | 328 ft | 12 kts | 71° |
| 2026-05-06 14:14 | 50.03822 | 8.51095 | 329 ft | 15 kts | 70° |
| 2026-05-06 14:14 | 50.03863 | 8.51264 | 332 ft | 18 kts | 69° |
| 2026-05-06 14:14 | 50.03909 | 8.51459 | 333 ft | 21 kts | 70° |
| 2026-05-06 14:15 | 50.03962 | 8.51681 | 336 ft | 23 kts | 70° |
| 2026-05-06 14:15 | 50.04020 | 8.51922 | 337 ft | 25 kts | 69° |
| 2026-05-06 14:15 | 50.04084 | 8.52189 | 351 ft | 27 kts | 70° |
| 2026-05-06 14:15 | 50.04155 | 8.52477 | 349 ft | 29 kts | 68° |
| 2026-05-06 14:16 | 50.04226 | 8.52782 | 352 ft | 31 kts | 69° |
| 2026-05-06 14:16 | 50.04301 | 8.53097 | 362 ft | 31 kts | 70° |
| 2026-05-06 14:16 | 50.04377 | 8.53412 | 361 ft | 31 kts | 70° |
| 2026-05-06 14:16 | 50.04411 | 8.53751 | 364 ft | 33 kts | 84° |
| 2026-05-06 14:17 | 50.04435 | 8.54121 | 360 ft | 35 kts | 84° |
| 2026-05-06 14:17 | 50.04448 | 8.54508 | 360 ft | 37 kts | 102° |
| 2026-05-06 14:17 | 50.04280 | 8.54793 | 364 ft | 37 kts | 160° |
| 2026-05-06 14:17 | 50.04127 | 8.54877 | 362 ft | 15 kts | 159° |
| 2026-05-06 14:18 | 50.04070 | 8.54909 | 364 ft | 0 kts | 160° |
| 2026-05-06 14:19 | 50.04061 | 8.54915 | 363 ft | 4 kts | 160° |
| 2026-05-06 14:19 | 50.04022 | 8.54938 | 362 ft | 10 kts | 159° |
| 2026-05-06 14:19 | 50.03924 | 8.54997 | 360 ft | 19 kts | 159° |
| 2026-05-06 14:20 | 50.03848 | 8.55098 | 359 ft | 16 kts | 85° |
| 2026-05-06 14:20 | 50.03890 | 8.55285 | 364 ft | 20 kts | 70° |
| 2026-05-06 14:20 | 50.03943 | 8.55510 | 363 ft | 24 kts | 70° |
| 2026-05-06 14:20 | 50.03998 | 8.55734 | 365 ft | 10 kts | 70° |
| 2026-05-06 14:21 | 50.04027 | 8.55859 | 367 ft | 10 kts | 70° |
| 2026-05-06 14:21 | 50.04032 | 8.55880 | 365 ft | 0 kts | 69° |
| 2026-05-06 14:22 | 50.04037 | 8.55901 | 362 ft | 8 kts | 69° |
| 2026-05-06 14:22 | 50.04087 | 8.56109 | 361 ft | 30 kts | 69° |
| 2026-05-06 14:22 | 50.04165 | 8.56439 | 360 ft | 35 kts | 70° |
| 2026-05-06 14:22 | 50.04251 | 8.56801 | 360 ft | 36 kts | 70° |
| 2026-05-06 14:23 | 50.04339 | 8.57167 | 361 ft | 37 kts | 69° |
| 2026-05-06 14:23 | 50.04432 | 8.57557 | 366 ft | 39 kts | 70° |
| 2026-05-06 14:23 | 50.04528 | 8.57959 | 361 ft | 41 kts | 70° |
| 2026-05-06 14:23 | 50.04627 | 8.58372 | 361 ft | 38 kts | 70° |
| 2026-05-06 14:24 | 50.04722 | 8.58758 | 362 ft | 36 kts | 65° |
| 2026-05-06 14:24 | 50.04797 | 8.59062 | 363 ft | 22 kts | 70° |
| 2026-05-06 14:24 | 50.04830 | 8.59199 | 365 ft | 8 kts | 70° |
| 2026-05-06 14:24 | 50.04843 | 8.59222 | 362 ft | 4 kts | 16° |
| 2026-05-06 14:25 | 50.04903 | 8.59195 | 365 ft | 9 kts | 340° |
| 2026-05-06 14:25 | 50.04920 | 8.59185 | 363 ft | 0 kts | 340° |